sensor_id;sensor_type;location;lat;lon;timestamp;P1;P2;P0
78063;PMS5003;67429;51.596;-3.264;2023-10-09T00:01:28;9;9;
78063;PMS5003;67429;51.596;-3.264;2023-10-09T00:03:53;9;9;
78063;PMS5003;67429;51.596;-3.264;2023-10-09T00:06:19;8;8;
78063;PMS5003;67429;51.596;-3.264;2023-10-09T00:08:44;9;8;
78063;PMS5003;67429;51.596;-3.264;2023-10-09T00:11:10;11;11;
78063;PMS5003;67429;51.596;-3.264;2023-10-09T00:13:35;12;11;
78063;PMS5003;67429;51.596;-3.264;2023-10-09T00:16:04;10;9;
78063;PMS5003;67429;51.596;-3.264;2023-10-09T00:18:26;9;9;
78063;PMS5003;67429;51.596;-3.264;2023-10-09T00:20:52;9;9;
78063;PMS5003;67429;51.596;-3.264;2023-10-09T00:23:17;11;11;
78063;PMS5003;67429;51.596;-3.264;2023-10-09T00:28:09;10;10;
78063;PMS5003;67429;51.596;-3.264;2023-10-09T00:30:34;8;8;
78063;PMS5003;67429;51.596;-3.264;2023-10-09T00:33:00;7;7;
78063;PMS5003;67429;51.596;-3.264;2023-10-09T00:35:25;9;9;
78063;PMS5003;67429;51.596;-3.264;2023-10-09T00:37:51;9;9;
78063;PMS5003;67429;51.596;-3.264;2023-10-09T00:40:16;9;9;
78063;PMS5003;67429;51.596;-3.264;2023-10-09T00:42:42;8;8;
78063;PMS5003;67429;51.596;-3.264;2023-10-09T00:45:08;9;9;
78063;PMS5003;67429;51.596;-3.264;2023-10-09T00:47:33;11;11;
78063;PMS5003;67429;51.596;-3.264;2023-10-09T00:49:59;15;11;
78063;PMS5003;67429;51.596;-3.264;2023-10-09T00:52:25;9;8;
78063;PMS5003;67429;51.596;-3.264;2023-10-09T00:54:50;12;11;
78063;PMS5003;67429;51.596;-3.264;2023-10-09T00:57:15;13;12;
78063;PMS5003;67429;51.596;-3.264;2023-10-09T00:59:41;9;8;
78063;PMS5003;67429;51.596;-3.264;2023-10-09T01:02:06;9;9;
78063;PMS5003;67429;51.596;-3.264;2023-10-09T01:04:32;9;9;
78063;PMS5003;67429;51.596;-3.264;2023-10-09T01:06:57;11;11;
78063;PMS5003;67429;51.596;-3.264;2023-10-09T01:09:23;12;12;
78063;PMS5003;67429;51.596;-3.264;2023-10-09T01:11:49;9;9;
78063;PMS5003;67429;51.596;-3.264;2023-10-09T01:14:14;9;9;
78063;PMS5003;67429;51.596;-3.264;2023-10-09T01:16:40;13;12;
78063;PMS5003;67429;51.596;-3.264;2023-10-09T01:19:05;13;11;
78063;PMS5003;67429;51.596;-3.264;2023-10-09T01:21:30;11;10;
78063;PMS5003;67429;51.596;-3.264;2023-10-09T01:23:56;9;9;
78063;PMS5003;67429;51.596;-3.264;2023-10-09T01:26:21;14;12;
78063;PMS5003;67429;51.596;-3.264;2023-10-09T01:28:47;10;10;
78063;PMS5003;67429;51.596;-3.264;2023-10-09T01:31:12;9;9;
78063;PMS5003;67429;51.596;-3.264;2023-10-09T01:33:38;9;9;
78063;PMS5003;67429;51.596;-3.264;2023-10-09T01:36:03;11;11;
78063;PMS5003;67429;51.596;-3.264;2023-10-09T01:38:29;11;11;
78063;PMS5003;67429;51.596;-3.264;2023-10-09T01:40:55;11;11;
78063;PMS5003;67429;51.596;-3.264;2023-10-09T01:43:20;11;10;
78063;PMS5003;67429;51.596;-3.264;2023-10-09T01:45:46;15;15;
78063;PMS5003;67429;51.596;-3.264;2023-10-09T01:48:12;13;12;
78063;PMS5003;67429;51.596;-3.264;2023-10-09T01:50:37;12;12;
78063;PMS5003;67429;51.596;-3.264;2023-10-09T01:53:03;12;11;
78063;PMS5003;67429;51.596;-3.264;2023-10-09T01:55:29;12;12;
78063;PMS5003;67429;51.596;-3.264;2023-10-09T01:57:54;14;14;
78063;PMS5003;67429;51.596;-3.264;2023-10-09T02:00:19;11;11;
78063;PMS5003;67429;51.596;-3.264;2023-10-09T02:02:45;11;11;
78063;PMS5003;67429;51.596;-3.264;2023-10-09T02:05:10;18;14;
78063;PMS5003;67429;51.596;-3.264;2023-10-09T02:07:36;11;10;
78063;PMS5003;67429;51.596;-3.264;2023-10-09T02:10:01;15;14;
78063;PMS5003;67429;51.596;-3.264;2023-10-09T02:12:27;13;13;
78063;PMS5003;67429;51.596;-3.264;2023-10-09T02:14:52;12;12;
78063;PMS5003;67429;51.596;-3.264;2023-10-09T02:17:18;16;15;
78063;PMS5003;67429;51.596;-3.264;2023-10-09T02:19:44;12;12;
78063;PMS5003;67429;51.596;-3.264;2023-10-09T02:22:09;12;12;
78063;PMS5003;67429;51.596;-3.264;2023-10-09T02:24:34;15;15;
78063;PMS5003;67429;51.596;-3.264;2023-10-09T02:27:00;14;13;
78063;PMS5003;67429;51.596;-3.264;2023-10-09T02:29:26;14;14;
78063;PMS5003;67429;51.596;-3.264;2023-10-09T02:31:51;15;15;
78063;PMS5003;67429;51.596;-3.264;2023-10-09T02:34:17;15;13;
78063;PMS5003;67429;51.596;-3.264;2023-10-09T02:36:42;14;14;
78063;PMS5003;67429;51.596;-3.264;2023-10-09T02:39:08;13;12;
78063;PMS5003;67429;51.596;-3.264;2023-10-09T02:41:33;13;12;
78063;PMS5003;67429;51.596;-3.264;2023-10-09T02:43:59;14;13;
78063;PMS5003;67429;51.596;-3.264;2023-10-09T02:46:24;14;13;
78063;PMS5003;67429;51.596;-3.264;2023-10-09T02:48:50;17;15;
78063;PMS5003;67429;51.596;-3.264;2023-10-09T02:51:16;13;13;
78063;PMS5003;67429;51.596;-3.264;2023-10-09T02:53:41;15;13;
78063;PMS5003;67429;51.596;-3.264;2023-10-09T02:56:07;14;13;
78063;PMS5003;67429;51.596;-3.264;2023-10-09T02:58:32;16;14;
78063;PMS5003;67429;51.596;-3.264;2023-10-09T03:00:58;15;14;
78063;PMS5003;67429;51.596;-3.264;2023-10-09T03:03:23;15;14;
78063;PMS5003;67429;51.596;-3.264;2023-10-09T03:05:49;15;14;
78063;PMS5003;67429;51.596;-3.264;2023-10-09T03:08:14;14;14;
78063;PMS5003;67429;51.596;-3.264;2023-10-09T03:10:40;14;13;
78063;PMS5003;67429;51.596;-3.264;2023-10-09T03:13:05;14;14;
78063;PMS5003;67429;51.596;-3.264;2023-10-09T03:15:31;14;13;
78063;PMS5003;67429;51.596;-3.264;2023-10-09T03:17:56;11;11;
78063;PMS5003;67429;51.596;-3.264;2023-10-09T03:20:22;14;14;
78063;PMS5003;67429;51.596;-3.264;2023-10-09T03:22:47;21;18;
78063;PMS5003;67429;51.596;-3.264;2023-10-09T03:25:13;15;14;
78063;PMS5003;67429;51.596;-3.264;2023-10-09T03:27:38;16;16;
78063;PMS5003;67429;51.596;-3.264;2023-10-09T03:30:04;11;10;
78063;PMS5003;67429;51.596;-3.264;2023-10-09T03:32:29;17;16;
78063;PMS5003;67429;51.596;-3.264;2023-10-09T03:34:55;15;14;
78063;PMS5003;67429;51.596;-3.264;2023-10-09T03:37:20;16;15;
78063;PMS5003;67429;51.596;-3.264;2023-10-09T03:39:46;17;17;
78063;PMS5003;67429;51.596;-3.264;2023-10-09T03:42:12;20;18;
78063;PMS5003;67429;51.596;-3.264;2023-10-09T03:44:37;17;17;
78063;PMS5003;67429;51.596;-3.264;2023-10-09T03:47:03;19;18;
78063;PMS5003;67429;51.596;-3.264;2023-10-09T03:49:28;21;21;
78063;PMS5003;67429;51.596;-3.264;2023-10-09T03:51:53;18;17;
78063;PMS5003;67429;51.596;-3.264;2023-10-09T03:54:19;16;16;
78063;PMS5003;67429;51.596;-3.264;2023-10-09T03:56:45;20;20;
78063;PMS5003;67429;51.596;-3.264;2023-10-09T03:59:10;19;17;
78063;PMS5003;67429;51.596;-3.264;2023-10-09T04:01:35;24;24;
78063;PMS5003;67429;51.596;-3.264;2023-10-09T04:04:01;18;17;
78063;PMS5003;67429;51.596;-3.264;2023-10-09T04:06:27;20;19;
78063;PMS5003;67429;51.596;-3.264;2023-10-09T04:08:52;23;22;
78063;PMS5003;67429;51.596;-3.264;2023-10-09T04:11:18;24;24;
78063;PMS5003;67429;51.596;-3.264;2023-10-09T04:13:44;23;22;
78063;PMS5003;67429;51.596;-3.264;2023-10-09T04:16:09;24;24;
78063;PMS5003;67429;51.596;-3.264;2023-10-09T04:18:35;26;25;
78063;PMS5003;67429;51.596;-3.264;2023-10-09T04:21:00;24;24;
78063;PMS5003;67429;51.596;-3.264;2023-10-09T04:23:25;27;26;
78063;PMS5003;67429;51.596;-3.264;2023-10-09T04:25:51;27;27;
78063;PMS5003;67429;51.596;-3.264;2023-10-09T04:28:17;29;28;
78063;PMS5003;67429;51.596;-3.264;2023-10-09T04:30:43;25;25;
78063;PMS5003;67429;51.596;-3.264;2023-10-09T04:33:09;27;26;
78063;PMS5003;67429;51.596;-3.264;2023-10-09T04:35:34;28;28;
78063;PMS5003;67429;51.596;-3.264;2023-10-09T04:37:59;29;28;
78063;PMS5003;67429;51.596;-3.264;2023-10-09T04:40:25;26;25;
78063;PMS5003;67429;51.596;-3.264;2023-10-09T04:42:50;27;26;
78063;PMS5003;67429;51.596;-3.264;2023-10-09T04:45:16;30;25;
78063;PMS5003;67429;51.596;-3.264;2023-10-09T04:47:41;24;24;
78063;PMS5003;67429;51.596;-3.264;2023-10-09T04:50:08;24;24;
78063;PMS5003;67429;51.596;-3.264;2023-10-09T04:52:32;27;26;
78063;PMS5003;67429;51.596;-3.264;2023-10-09T04:54:58;24;23;
78063;PMS5003;67429;51.596;-3.264;2023-10-09T04:57:24;28;27;
78063;PMS5003;67429;51.596;-3.264;2023-10-09T04:59:49;22;21;
78063;PMS5003;67429;51.596;-3.264;2023-10-09T05:02:15;26;24;
78063;PMS5003;67429;51.596;-3.264;2023-10-09T05:04:40;21;19;
78063;PMS5003;67429;51.596;-3.264;2023-10-09T05:07:06;21;21;
78063;PMS5003;67429;51.596;-3.264;2023-10-09T05:09:31;23;22;
78063;PMS5003;67429;51.596;-3.264;2023-10-09T05:11:57;21;21;
78063;PMS5003;67429;51.596;-3.264;2023-10-09T05:14:22;22;22;
78063;PMS5003;67429;51.596;-3.264;2023-10-09T05:16:47;23;23;
78063;PMS5003;67429;51.596;-3.264;2023-10-09T05:19:13;28;26;
78063;PMS5003;67429;51.596;-3.264;2023-10-09T05:21:38;25;25;
78063;PMS5003;67429;51.596;-3.264;2023-10-09T05:24:04;26;25;
78063;PMS5003;67429;51.596;-3.264;2023-10-09T05:26:29;24;23;
78063;PMS5003;67429;51.596;-3.264;2023-10-09T05:28:55;26;23;
78063;PMS5003;67429;51.596;-3.264;2023-10-09T05:31:20;29;27;
78063;PMS5003;67429;51.596;-3.264;2023-10-09T05:33:46;28;27;
78063;PMS5003;67429;51.596;-3.264;2023-10-09T05:36:11;27;26;
78063;PMS5003;67429;51.596;-3.264;2023-10-09T05:38:37;29;26;
78063;PMS5003;67429;51.596;-3.264;2023-10-09T05:41:02;28;25;
78063;PMS5003;67429;51.596;-3.264;2023-10-09T05:43:28;27;27;
78063;PMS5003;67429;51.596;-3.264;2023-10-09T05:45:53;28;26;
78063;PMS5003;67429;51.596;-3.264;2023-10-09T05:48:19;25;24;
78063;PMS5003;67429;51.596;-3.264;2023-10-09T05:50:44;27;25;
78063;PMS5003;67429;51.596;-3.264;2023-10-09T05:53:09;21;21;
78063;PMS5003;67429;51.596;-3.264;2023-10-09T05:55:35;22;21;
78063;PMS5003;67429;51.596;-3.264;2023-10-09T05:58:01;20;19;
78063;PMS5003;67429;51.596;-3.264;2023-10-09T06:00:27;20;19;
78063;PMS5003;67429;51.596;-3.264;2023-10-09T06:02:52;20;20;
78063;PMS5003;67429;51.596;-3.264;2023-10-09T06:05:18;21;19;
78063;PMS5003;67429;51.596;-3.264;2023-10-09T06:07:43;24;23;
78063;PMS5003;67429;51.596;-3.264;2023-10-09T06:10:09;19;18;
78063;PMS5003;67429;51.596;-3.264;2023-10-09T06:12:34;18;18;
78063;PMS5003;67429;51.596;-3.264;2023-10-09T06:15:00;16;16;
78063;PMS5003;67429;51.596;-3.264;2023-10-09T06:17:26;21;21;
78063;PMS5003;67429;51.596;-3.264;2023-10-09T06:19:52;20;20;
78063;PMS5003;67429;51.596;-3.264;2023-10-09T06:22:17;21;20;
78063;PMS5003;67429;51.596;-3.264;2023-10-09T06:24:44;23;21;
78063;PMS5003;67429;51.596;-3.264;2023-10-09T06:27:09;23;22;
78063;PMS5003;67429;51.596;-3.264;2023-10-09T06:29:34;24;21;
78063;PMS5003;67429;51.596;-3.264;2023-10-09T06:32:00;21;21;
78063;PMS5003;67429;51.596;-3.264;2023-10-09T06:34:26;24;23;
78063;PMS5003;67429;51.596;-3.264;2023-10-09T06:36:50;21;20;
78063;PMS5003;67429;51.596;-3.264;2023-10-09T06:39:15;22;21;
78063;PMS5003;67429;51.596;-3.264;2023-10-09T06:41:42;22;21;
78063;PMS5003;67429;51.596;-3.264;2023-10-09T06:44:07;19;19;
78063;PMS5003;67429;51.596;-3.264;2023-10-09T06:46:32;25;23;
78063;PMS5003;67429;51.596;-3.264;2023-10-09T06:48:57;15;15;
78063;PMS5003;67429;51.596;-3.264;2023-10-09T06:51:23;17;17;
78063;PMS5003;67429;51.596;-3.264;2023-10-09T06:53:49;13;13;
78063;PMS5003;67429;51.596;-3.264;2023-10-09T06:56:15;17;16;
78063;PMS5003;67429;51.596;-3.264;2023-10-09T06:58:40;13;13;
78063;PMS5003;67429;51.596;-3.264;2023-10-09T07:01:05;17;16;
78063;PMS5003;67429;51.596;-3.264;2023-10-09T07:03:31;16;13;
78063;PMS5003;67429;51.596;-3.264;2023-10-09T07:08:22;17;16;
78063;PMS5003;67429;51.596;-3.264;2023-10-09T07:10:48;25;24;
78063;PMS5003;67429;51.596;-3.264;2023-10-09T07:13:13;16;16;
78063;PMS5003;67429;51.596;-3.264;2023-10-09T07:15:42;17;15;
78063;PMS5003;67429;51.596;-3.264;2023-10-09T07:18:04;16;16;
78063;PMS5003;67429;51.596;-3.264;2023-10-09T07:20:30;15;14;
78063;PMS5003;67429;51.596;-3.264;2023-10-09T07:22:55;12;11;
78063;PMS5003;67429;51.596;-3.264;2023-10-09T07:25:21;12;11;
78063;PMS5003;67429;51.596;-3.264;2023-10-09T07:27:46;11;10;
78063;PMS5003;67429;51.596;-3.264;2023-10-09T07:30:13;9;9;
78063;PMS5003;67429;51.596;-3.264;2023-10-09T07:32:37;11;11;
78063;PMS5003;67429;51.596;-3.264;2023-10-09T07:35:03;12;12;
78063;PMS5003;67429;51.596;-3.264;2023-10-09T07:37:28;10;10;
78063;PMS5003;67429;51.596;-3.264;2023-10-09T07:39:54;12;11;
78063;PMS5003;67429;51.596;-3.264;2023-10-09T07:42:19;13;12;
78063;PMS5003;67429;51.596;-3.264;2023-10-09T07:44:45;9;8;
78063;PMS5003;67429;51.596;-3.264;2023-10-09T07:47:10;7;7;
78063;PMS5003;67429;51.596;-3.264;2023-10-09T07:49:36;9;9;
78063;PMS5003;67429;51.596;-3.264;2023-10-09T07:52:01;10;9;
78063;PMS5003;67429;51.596;-3.264;2023-10-09T07:54:27;8;8;
78063;PMS5003;67429;51.596;-3.264;2023-10-09T07:56:53;6;6;
78063;PMS5003;67429;51.596;-3.264;2023-10-09T07:59:18;9;9;
78063;PMS5003;67429;51.596;-3.264;2023-10-09T08:01:43;7;7;
78063;PMS5003;67429;51.596;-3.264;2023-10-09T08:04:09;25;24;
78063;PMS5003;67429;51.596;-3.264;2023-10-09T08:06:34;29;29;
78063;PMS5003;67429;51.596;-3.264;2023-10-09T08:09:00;30;28;
78063;PMS5003;67429;51.596;-3.264;2023-10-09T08:11:26;22;22;
78063;PMS5003;67429;51.596;-3.264;2023-10-09T08:13:51;22;21;
78063;PMS5003;67429;51.596;-3.264;2023-10-09T08:16:16;21;21;
78063;PMS5003;67429;51.596;-3.264;2023-10-09T08:18:42;23;21;
78063;PMS5003;67429;51.596;-3.264;2023-10-09T08:21:07;18;17;
78063;PMS5003;67429;51.596;-3.264;2023-10-09T08:23:33;18;17;
78063;PMS5003;67429;51.596;-3.264;2023-10-09T08:25:59;15;15;
78063;PMS5003;67429;51.596;-3.264;2023-10-09T08:28:24;18;18;
78063;PMS5003;67429;51.596;-3.264;2023-10-09T08:30:49;13;13;
78063;PMS5003;67429;51.596;-3.264;2023-10-09T08:33:15;12;12;
78063;PMS5003;67429;51.596;-3.264;2023-10-09T08:35:40;16;16;
78063;PMS5003;67429;51.596;-3.264;2023-10-09T08:38:06;18;18;
78063;PMS5003;67429;51.596;-3.264;2023-10-09T08:40:32;14;13;
78063;PMS5003;67429;51.596;-3.264;2023-10-09T08:42:57;14;12;
78063;PMS5003;67429;51.596;-3.264;2023-10-09T08:45:22;18;17;
78063;PMS5003;67429;51.596;-3.264;2023-10-09T08:47:47;16;15;
78063;PMS5003;67429;51.596;-3.264;2023-10-09T08:50:13;16;16;
78063;PMS5003;67429;51.596;-3.264;2023-10-09T08:52:39;17;17;
78063;PMS5003;67429;51.596;-3.264;2023-10-09T08:55:05;15;15;
78063;PMS5003;67429;51.596;-3.264;2023-10-09T08:57:30;17;16;
78063;PMS5003;67429;51.596;-3.264;2023-10-09T08:59:55;14;14;
78063;PMS5003;67429;51.596;-3.264;2023-10-09T09:02:21;17;16;
78063;PMS5003;67429;51.596;-3.264;2023-10-09T09:04:47;17;15;
78063;PMS5003;67429;51.596;-3.264;2023-10-09T09:09:38;21;21;
78063;PMS5003;67429;51.596;-3.264;2023-10-09T09:12:03;17;17;
78063;PMS5003;67429;51.596;-3.264;2023-10-09T09:14:37;47;47;
78063;PMS5003;67429;51.596;-3.264;2023-10-09T09:16:53;18;18;
78063;PMS5003;67429;51.596;-3.264;2023-10-09T09:19:19;18;18;
78063;PMS5003;67429;51.596;-3.264;2023-10-09T09:21:50;17;17;
78063;PMS5003;67429;51.596;-3.264;2023-10-09T09:24:11;22;20;
78063;PMS5003;67429;51.596;-3.264;2023-10-09T09:26:37;14;14;
78063;PMS5003;67429;51.596;-3.264;2023-10-09T09:29:01;15;15;
78063;PMS5003;67429;51.596;-3.264;2023-10-09T09:31:26;18;17;
78063;PMS5003;67429;51.596;-3.264;2023-10-09T09:33:55;14;14;
78063;PMS5003;67429;51.596;-3.264;2023-10-09T09:36:17;13;13;
78063;PMS5003;67429;51.596;-3.264;2023-10-09T09:38:43;14;13;
78063;PMS5003;67429;51.596;-3.264;2023-10-09T09:41:08;13;13;
78063;PMS5003;67429;51.596;-3.264;2023-10-09T09:43:33;13;12;
78063;PMS5003;67429;51.596;-3.264;2023-10-09T09:45:59;13;13;
78063;PMS5003;67429;51.596;-3.264;2023-10-09T09:48:24;12;12;
78063;PMS5003;67429;51.596;-3.264;2023-10-09T09:50:49;14;13;
78063;PMS5003;67429;51.596;-3.264;2023-10-09T09:53:15;13;11;
78063;PMS5003;67429;51.596;-3.264;2023-10-09T09:55:40;12;12;
78063;PMS5003;67429;51.596;-3.264;2023-10-09T09:58:05;14;13;
78063;PMS5003;67429;51.596;-3.264;2023-10-09T10:00:31;14;14;
78063;PMS5003;67429;51.596;-3.264;2023-10-09T10:02:57;10;10;
78063;PMS5003;67429;51.596;-3.264;2023-10-09T10:05:21;12;12;
78063;PMS5003;67429;51.596;-3.264;2023-10-09T10:07:46;12;12;
78063;PMS5003;67429;51.596;-3.264;2023-10-09T10:15:02;10;10;
78063;PMS5003;67429;51.596;-3.264;2023-10-09T10:17:28;14;12;
78063;PMS5003;67429;51.596;-3.264;2023-10-09T10:19:59;9;9;
78063;PMS5003;67429;51.596;-3.264;2023-10-09T10:22:23;10;10;
78063;PMS5003;67429;51.596;-3.264;2023-10-09T10:24:44;10;10;
78063;PMS5003;67429;51.596;-3.264;2023-10-09T10:27:15;14;14;
78063;PMS5003;67429;51.596;-3.264;2023-10-09T10:29:35;16;15;
78063;PMS5003;67429;51.596;-3.264;2023-10-09T10:32:01;13;13;
78063;PMS5003;67429;51.596;-3.264;2023-10-09T10:34:26;14;13;
78063;PMS5003;67429;51.596;-3.264;2023-10-09T10:36:51;13;13;
78063;PMS5003;67429;51.596;-3.264;2023-10-09T10:39:16;13;12;
78063;PMS5003;67429;51.596;-3.264;2023-10-09T10:41:43;11;10;
78063;PMS5003;67429;51.596;-3.264;2023-10-09T10:44:07;11;10;
78063;PMS5003;67429;51.596;-3.264;2023-10-09T10:46:33;15;15;
78063;PMS5003;67429;51.596;-3.264;2023-10-09T10:48:59;14;14;
78063;PMS5003;67429;51.596;-3.264;2023-10-09T10:51:24;13;13;
78063;PMS5003;67429;51.596;-3.264;2023-10-09T10:53:51;16;15;
78063;PMS5003;67429;51.596;-3.264;2023-10-09T10:56:15;14;13;
78063;PMS5003;67429;51.596;-3.264;2023-10-09T10:58:41;13;12;
78063;PMS5003;67429;51.596;-3.264;2023-10-09T11:01:05;15;14;
78063;PMS5003;67429;51.596;-3.264;2023-10-09T11:03:30;15;14;
78063;PMS5003;67429;51.596;-3.264;2023-10-09T11:05:57;11;11;
78063;PMS5003;67429;51.596;-3.264;2023-10-09T11:08:23;14;14;
78063;PMS5003;67429;51.596;-3.264;2023-10-09T11:10:46;18;17;
78063;PMS5003;67429;51.596;-3.264;2023-10-09T11:15:38;12;12;
78063;PMS5003;67429;51.596;-3.264;2023-10-09T11:18:03;17;16;
78063;PMS5003;67429;51.596;-3.264;2023-10-09T11:20:28;15;15;
78063;PMS5003;67429;51.596;-3.264;2023-10-09T11:22:53;13;13;
78063;PMS5003;67429;51.596;-3.264;2023-10-09T11:25:18;12;12;
78063;PMS5003;67429;51.596;-3.264;2023-10-09T11:27:44;12;12;
78063;PMS5003;67429;51.596;-3.264;2023-10-09T11:30:09;14;14;
78063;PMS5003;67429;51.596;-3.264;2023-10-09T11:32:35;15;13;
78063;PMS5003;67429;51.596;-3.264;2023-10-09T11:37:26;12;12;
78063;PMS5003;67429;51.596;-3.264;2023-10-09T11:39:51;11;10;
78063;PMS5003;67429;51.596;-3.264;2023-10-09T11:42:17;13;13;
78063;PMS5003;67429;51.596;-3.264;2023-10-09T11:44:41;15;14;
78063;PMS5003;67429;51.596;-3.264;2023-10-09T11:47:07;15;15;
78063;PMS5003;67429;51.596;-3.264;2023-10-09T11:49:32;16;16;
78063;PMS5003;67429;51.596;-3.264;2023-10-09T11:52:06;18;18;
78063;PMS5003;67429;51.596;-3.264;2023-10-09T11:56:49;16;15;
78063;PMS5003;67429;51.596;-3.264;2023-10-09T11:59:14;14;14;
78063;PMS5003;67429;51.596;-3.264;2023-10-09T12:01:39;16;16;
78063;PMS5003;67429;51.596;-3.264;2023-10-09T12:04:05;14;14;
78063;PMS5003;67429;51.596;-3.264;2023-10-09T12:06:29;17;16;
78063;PMS5003;67429;51.596;-3.264;2023-10-09T12:08:55;15;15;
78063;PMS5003;67429;51.596;-3.264;2023-10-09T12:11:20;16;15;
78063;PMS5003;67429;51.596;-3.264;2023-10-09T12:13:45;15;15;
78063;PMS5003;67429;51.596;-3.264;2023-10-09T12:16:10;16;16;
78063;PMS5003;67429;51.596;-3.264;2023-10-09T12:18:36;18;18;
78063;PMS5003;67429;51.596;-3.264;2023-10-09T12:21:01;16;16;
78063;PMS5003;67429;51.596;-3.264;2023-10-09T12:23:26;18;17;
78063;PMS5003;67429;51.596;-3.264;2023-10-09T12:25:51;17;17;
78063;PMS5003;67429;51.596;-3.264;2023-10-09T12:28:17;22;20;
78063;PMS5003;67429;51.596;-3.264;2023-10-09T12:30:42;21;19;
78063;PMS5003;67429;51.596;-3.264;2023-10-09T12:33:08;19;18;
78063;PMS5003;67429;51.596;-3.264;2023-10-09T12:35:36;18;18;
78063;PMS5003;67429;51.596;-3.264;2023-10-09T12:37:58;19;18;
78063;PMS5003;67429;51.596;-3.264;2023-10-09T12:40:24;15;15;
78063;PMS5003;67429;51.596;-3.264;2023-10-09T12:42:50;17;17;
78063;PMS5003;67429;51.596;-3.264;2023-10-09T12:45:14;18;16;
78063;PMS5003;67429;51.596;-3.264;2023-10-09T12:47:40;17;16;
78063;PMS5003;67429;51.596;-3.264;2023-10-09T12:50:06;18;17;
78063;PMS5003;67429;51.596;-3.264;2023-10-09T12:52:31;18;18;
78063;PMS5003;67429;51.596;-3.264;2023-10-09T12:54:56;18;17;
78063;PMS5003;67429;51.596;-3.264;2023-10-09T12:57:22;22;21;
78063;PMS5003;67429;51.596;-3.264;2023-10-09T12:59:47;18;18;
78063;PMS5003;67429;51.596;-3.264;2023-10-09T13:02:12;19;19;
78063;PMS5003;67429;51.596;-3.264;2023-10-09T13:04:38;21;19;
78063;PMS5003;67429;51.596;-3.264;2023-10-09T13:07:04;20;20;
78063;PMS5003;67429;51.596;-3.264;2023-10-09T13:09:29;20;20;
78063;PMS5003;67429;51.596;-3.264;2023-10-09T13:11:54;18;17;
78063;PMS5003;67429;51.596;-3.264;2023-10-09T13:14:19;19;18;
78063;PMS5003;67429;51.596;-3.264;2023-10-09T13:16:45;20;18;
78063;PMS5003;67429;51.596;-3.264;2023-10-09T13:19:10;22;22;
78063;PMS5003;67429;51.596;-3.264;2023-10-09T13:21:35;19;19;
78063;PMS5003;67429;51.596;-3.264;2023-10-09T13:24:01;21;19;
78063;PMS5003;67429;51.596;-3.264;2023-10-09T13:26:26;20;19;
78063;PMS5003;67429;51.596;-3.264;2023-10-09T13:28:51;17;16;
78063;PMS5003;67429;51.596;-3.264;2023-10-09T13:31:16;13;13;
78063;PMS5003;67429;51.596;-3.264;2023-10-09T13:33:41;14;14;
78063;PMS5003;67429;51.596;-3.264;2023-10-09T13:36:06;15;15;
78063;PMS5003;67429;51.596;-3.264;2023-10-09T13:38:31;16;16;
78063;PMS5003;67429;51.596;-3.264;2023-10-09T13:40:58;18;17;
78063;PMS5003;67429;51.596;-3.264;2023-10-09T13:43:22;16;15;
78063;PMS5003;67429;51.596;-3.264;2023-10-09T13:45:48;14;14;
78063;PMS5003;67429;51.596;-3.264;2023-10-09T13:48:13;15;13;
78063;PMS5003;67429;51.596;-3.264;2023-10-09T13:50:38;13;13;
78063;PMS5003;67429;51.596;-3.264;2023-10-09T13:53:03;13;13;
78063;PMS5003;67429;51.596;-3.264;2023-10-09T13:55:28;12;11;
78063;PMS5003;67429;51.596;-3.264;2023-10-09T13:57:53;10;10;
78063;PMS5003;67429;51.596;-3.264;2023-10-09T14:00:19;11;11;
78063;PMS5003;67429;51.596;-3.264;2023-10-09T14:02:44;12;12;
78063;PMS5003;67429;51.596;-3.264;2023-10-09T14:05:09;12;11;
78063;PMS5003;67429;51.596;-3.264;2023-10-09T14:07:34;10;10;
78063;PMS5003;67429;51.596;-3.264;2023-10-09T14:10:00;10;10;
78063;PMS5003;67429;51.596;-3.264;2023-10-09T14:12:25;11;10;
78063;PMS5003;67429;51.596;-3.264;2023-10-09T14:14:50;12;11;
78063;PMS5003;67429;51.596;-3.264;2023-10-09T14:17:17;9;9;
78063;PMS5003;67429;51.596;-3.264;2023-10-09T14:19:41;13;12;
78063;PMS5003;67429;51.596;-3.264;2023-10-09T14:22:07;11;10;
78063;PMS5003;67429;51.596;-3.264;2023-10-09T14:24:32;10;9;
78063;PMS5003;67429;51.596;-3.264;2023-10-09T14:26:57;14;13;
78063;PMS5003;67429;51.596;-3.264;2023-10-09T14:29:23;13;12;
78063;PMS5003;67429;51.596;-3.264;2023-10-09T14:31:48;12;11;
78063;PMS5003;67429;51.596;-3.264;2023-10-09T14:34:13;12;12;
78063;PMS5003;67429;51.596;-3.264;2023-10-09T14:36:39;10;10;
78063;PMS5003;67429;51.596;-3.264;2023-10-09T14:39:04;14;12;
78063;PMS5003;67429;51.596;-3.264;2023-10-09T14:41:29;9;9;
78063;PMS5003;67429;51.596;-3.264;2023-10-09T14:43:55;8;8;
78063;PMS5003;67429;51.596;-3.264;2023-10-09T14:46:20;10;10;
78063;PMS5003;67429;51.596;-3.264;2023-10-09T14:48:45;10;9;
78063;PMS5003;67429;51.596;-3.264;2023-10-09T14:51:11;10;9;
78063;PMS5003;67429;51.596;-3.264;2023-10-09T14:53:36;10;10;
78063;PMS5003;67429;51.596;-3.264;2023-10-09T14:56:01;8;7;
78063;PMS5003;67429;51.596;-3.264;2023-10-09T14:58:27;8;8;
78063;PMS5003;67429;51.596;-3.264;2023-10-09T15:00:52;7;7;
78063;PMS5003;67429;51.596;-3.264;2023-10-09T15:03:17;10;8;
78063;PMS5003;67429;51.596;-3.264;2023-10-09T15:05:43;9;9;
78063;PMS5003;67429;51.596;-3.264;2023-10-09T15:08:08;10;10;
78063;PMS5003;67429;51.596;-3.264;2023-10-09T15:10:33;10;9;
78063;PMS5003;67429;51.596;-3.264;2023-10-09T15:12:58;6;6;
78063;PMS5003;67429;51.596;-3.264;2023-10-09T15:15:24;9;8;
78063;PMS5003;67429;51.596;-3.264;2023-10-09T15:17:49;8;8;
78063;PMS5003;67429;51.596;-3.264;2023-10-09T15:20:15;11;9;
78063;PMS5003;67429;51.596;-3.264;2023-10-09T15:22:41;7;7;
78063;PMS5003;67429;51.596;-3.264;2023-10-09T15:25:06;10;10;
78063;PMS5003;67429;51.596;-3.264;2023-10-09T15:27:31;7;7;
78063;PMS5003;67429;51.596;-3.264;2023-10-09T15:29:56;9;8;
78063;PMS5003;67429;51.596;-3.264;2023-10-09T15:32:21;9;9;
78063;PMS5003;67429;51.596;-3.264;2023-10-09T15:34:47;7;7;
78063;PMS5003;67429;51.596;-3.264;2023-10-09T15:37:12;8;8;
78063;PMS5003;67429;51.596;-3.264;2023-10-09T15:39:37;10;10;
78063;PMS5003;67429;51.596;-3.264;2023-10-09T15:42:03;10;9;
78063;PMS5003;67429;51.596;-3.264;2023-10-09T15:44:28;8;8;
78063;PMS5003;67429;51.596;-3.264;2023-10-09T15:46:53;11;11;
78063;PMS5003;67429;51.596;-3.264;2023-10-09T15:49:18;9;9;
78063;PMS5003;67429;51.596;-3.264;2023-10-09T15:51:44;10;9;
78063;PMS5003;67429;51.596;-3.264;2023-10-09T15:54:09;12;10;
78063;PMS5003;67429;51.596;-3.264;2023-10-09T15:56:35;10;9;
78063;PMS5003;67429;51.596;-3.264;2023-10-09T15:59:00;9;9;
78063;PMS5003;67429;51.596;-3.264;2023-10-09T16:01:25;9;9;
78063;PMS5003;67429;51.596;-3.264;2023-10-09T16:03:51;9;9;
78063;PMS5003;67429;51.596;-3.264;2023-10-09T16:06:17;8;8;
78063;PMS5003;67429;51.596;-3.264;2023-10-09T16:08:41;9;9;
78063;PMS5003;67429;51.596;-3.264;2023-10-09T16:11:07;6;6;
78063;PMS5003;67429;51.596;-3.264;2023-10-09T16:13:32;9;7;